Arbovale, West Virginia
Current Conditions -  °F | °C
As of 11:51 PM on Wednesday 22 Oct 2014 (Local Time) from KEKN Reporting Station
Overcast Overcast  
Wind Chill: 42°   Ceiling: 1100
Heat Index: 44°   Visibility: 10mi
Dew Point: 42°   Wind: 5mph
Humidity: 93%   Direction: 320°NW
Pressure: 30.15"   Gusts: NA
Location:  38.44°N, 79.82°W
Report Text: KEKN 230351Z AUTO 32004KT 10SM OVC011 07/06 A3015 RMK AO2 SLP221 T00670056 TSNO
Loading
Personal Weather Stations






























Interactive Weather Map New forecast layout! Learn more

10-Day Weather Forecast

Advertisements
Track Severe Weather on mobile